Time;durP1;ratioP1;P1;durP2;ratioP2;P2;SDS_P1;SDS_P2;PMS_P1;PMS_P2;Temp;Humidity;BMP_temperature;BMP_pressure;BME280_temperature;BME280_humidity;BME280_pressure;Samples;Min_cycle;Max_cycle;Signal;HPM_P1;HPM_P2
2023/10/10 00:01:44;;;;;;;7.47;3.90;;;;;;;;;;5076106;28;20431;-75
2023/10/10 00:04:12;;;;;;;17.13;4.73;;;;;;;;;;5076098;28;20456;-75
2023/10/10 00:06:39;;;;;;;9.40;4.00;;;;;;;;;;5076125;28;20486;-74
2023/10/10 00:09:10;;;;;;;13.10;4.30;;;;;;;;;;5075669;28;20494;-75
2023/10/10 00:11:41;;;;;;;12.57;4.20;;;;;;;;;;5075591;28;20516;-75
2023/10/10 00:14:17;;;;;;;10.63;3.83;;;;;;;;;;5075975;28;20448;-75
2023/10/10 00:16:47;;;;;;;12.93;4.40;;;;;;;;;;5075587;28;20424;-75
2023/10/10 00:19:21;;;;;;;7.30;3.87;;;;;;;;;;5075434;28;20481;-75
2023/10/10 00:21:50;;;;;;;7.83;3.80;;;;;;;;;;5075750;28;20764;-75
2023/10/10 00:24:23;;;;;;;12.43;4.03;;;;;;;;;;5075403;28;20560;-75
2023/10/10 00:26:52;;;;;;;12.47;4.23;;;;;;;;;;5075089;28;20915;-75
2023/10/10 00:29:26;;;;;;;10.87;3.17;;;;;;;;;;5075479;28;20444;-75
2023/10/10 00:32:05;;;;;;;8.93;3.93;;;;;;;;;;5075700;28;20416;-74
2023/10/10 00:34:37;;;;;;;14.63;4.60;;;;;;;;;;5075540;28;20432;-75
2023/10/10 00:37:08;;;;;;;13.57;4.70;;;;;;;;;;5074823;28;20864;-75
2023/10/10 00:39:37;;;;;;;9.03;3.90;;;;;;;;;;5075260;28;20460;-75
2023/10/10 00:42:07;;;;;;;8.90;3.33;;;;;;;;;;5075088;28;20919;-75
2023/10/10 00:44:38;;;;;;;9.73;3.80;;;;;;;;;;5074995;28;20478;-75
2023/10/10 00:47:12;;;;;;;10.80;4.57;;;;;;;;;;5075156;28;20462;-75
2023/10/10 00:49:43;;;;;;;9.93;3.20;;;;;;;;;;5074824;28;20420;-75
2023/10/10 00:52:12;;;;;;;17.87;3.83;;;;;;;;;;5074880;28;20499;-75
2023/10/10 00:54:44;;;;;;;15.00;6.00;;;;;;;;;;5074730;28;20921;-75
2023/10/10 00:57:13;;;;;;;12.90;3.90;;;;;;;;;;5075053;28;20415;-75
2023/10/10 00:59:44;;;;;;;11.73;4.43;;;;;;;;;;5074610;28;20884;-75
2023/10/10 01:02:12;;;;;;;12.10;4.60;;;;;;;;;;5074969;28;20421;-75
2023/10/10 01:04:48;;;;;;;15.00;4.70;;;;;;;;;;5074903;28;20494;-75
2023/10/10 01:07:19;;;;;;;9.93;3.83;;;;;;;;;;5074884;28;20475;-75
2023/10/10 01:09:55;;;;;;;9.80;4.90;;;;;;;;;;5074036;28;20819;-75
2023/10/10 01:12:23;;;;;;;12.33;3.83;;;;;;;;;;5073884;28;20862;-75
2023/10/10 01:14:54;;;;;;;12.27;4.10;;;;;;;;;;5073764;28;20468;-79
2023/10/10 01:17:25;;;;;;;15.67;3.70;;;;;;;;;;5073893;28;20455;-75
2023/10/10 01:19:52;;;;;;;8.50;3.53;;;;;;;;;;5074153;28;20467;-74
2023/10/10 01:22:37;;;;;;;11.50;4.03;;;;;;;;;;5074442;28;20500;-75
2023/10/10 01:25:28;;;;;;;18.23;3.60;;;;;;;;;;5074610;28;20421;-75
2023/10/10 01:27:54;;;;;;;14.30;3.67;;;;;;;;;;5073833;28;20507;-75
2023/10/10 01:30:44;;;;;;;12.73;4.03;;;;;;;;;;5073978;28;20502;-75
2023/10/10 01:33:14;;;;;;;12.87;3.07;;;;;;;;;;5073844;28;20464;-75
2023/10/10 01:35:42;;;;;;;12.70;3.23;;;;;;;;;;5073513;28;20502;-75
2023/10/10 01:38:27;;;;;;;22.10;3.77;;;;;;;;;;5073326;28;20499;-74
2023/10/10 01:40:54;;;;;;;12.33;4.40;;;;;;;;;;5073829;28;20490;-75
2023/10/10 01:43:22;;;;;;;15.83;3.37;;;;;;;;;;5073945;28;20432;-75
2023/10/10 01:46:08;;;;;;;13.20;3.87;;;;;;;;;;5074131;28;20486;-75
2023/10/10 01:48:38;;;;;;;9.80;4.03;;;;;;;;;;5073521;28;20464;-76
2023/10/10 01:51:08;;;;;;;6.60;3.10;;;;;;;;;;5073676;28;20538;-75
2023/10/10 01:53:40;;;;;;;13.17;4.23;;;;;;;;;;5073605;28;20440;-75
2023/10/10 01:56:08;;;;;;;22.23;4.07;;;;;;;;;;5073970;28;20460;-74
2023/10/10 01:58:36;;;;;;;7.77;3.37;;;;;;;;;;5073435;28;20543;-74
2023/10/10 02:01:12;;;;;;;11.73;3.67;;;;;;;;;;5073886;28;20432;-75
2023/10/10 02:03:40;;;;;;;12.40;4.40;;;;;;;;;;5073465;28;20470;-75
2023/10/10 02:06:13;;;;;;;9.37;3.93;;;;;;;;;;5073449;28;20469;-75
2023/10/10 02:08:43;;;;;;;10.73;3.67;;;;;;;;;;5073277;28;20538;-74
2023/10/10 02:11:12;;;;;;;11.77;4.40;;;;;;;;;;5073677;28;20768;-74
2023/10/10 02:13:39;;;;;;;14.70;4.50;;;;;;;;;;5073519;28;20463;-75
2023/10/10 02:16:10;;;;;;;12.00;3.93;;;;;;;;;;5073265;28;20433;-74
2023/10/10 02:18:44;;;;;;;10.90;3.70;;;;;;;;;;5073313;28;20430;-75
2023/10/10 02:21:16;;;;;;;18.60;5.13;;;;;;;;;;5073307;28;20429;-74
2023/10/10 02:23:46;;;;;;;12.07;3.80;;;;;;;;;;5073630;28;20434;-75
2023/10/10 02:26:23;;;;;;;11.23;4.33;;;;;;;;;;5073151;28;20827;-75
2023/10/10 02:29:16;;;;;;;13.43;4.80;;;;;;;;;;5073473;28;20455;-75
2023/10/10 02:31:41;;;;;;;9.87;3.10;;;;;;;;;;5071639;28;20452;-75
2023/10/10 02:34:10;;;;;;;9.17;4.17;;;;;;;;;;5073234;28;20437;-75
2023/10/10 02:36:41;;;;;;;11.60;3.70;;;;;;;;;;5073343;28;20464;-75
2023/10/10 02:39:27;;;;;;;13.83;4.70;;;;;;;;;;5073046;28;20899;-75
2023/10/10 02:41:59;;;;;;;9.87;4.50;;;;;;;;;;5073093;28;20455;-75
2023/10/10 02:44:26;;;;;;;10.63;4.00;;;;;;;;;;5073384;28;20813;-75
2023/10/10 02:46:54;;;;;;;15.47;4.20;;;;;;;;;;5073320;28;20432;-75
2023/10/10 02:49:29;;;;;;;10.90;4.30;;;;;;;;;;5073217;28;20874;-75
2023/10/10 02:51:57;;;;;;;16.57;3.90;;;;;;;;;;5073034;28;20503;-75
2023/10/10 02:54:33;;;;;;;8.33;3.90;;;;;;;;;;5072628;28;20458;-74
2023/10/10 02:57:26;;;;;;;12.03;5.57;;;;;;;;;;5072934;28;20482;-75
2023/10/10 02:59:50;;;;;;;12.83;4.80;;;;;;;;;;5072631;28;20481;-75
2023/10/10 03:02:20;;;;;;;10.40;4.43;;;;;;;;;;5072808;28;20440;-75
2023/10/10 03:05:05;;;;;;;16.17;3.87;;;;;;;;;;5073175;28;20490;-75
2023/10/10 03:07:33;;;;;;;8.03;4.00;;;;;;;;;;5073281;28;20507;-75
2023/10/10 03:10:23;;;;;;;15.07;5.30;;;;;;;;;;5072250;28;20518;-75
2023/10/10 03:13:03;;;;;;;13.90;6.23;;;;;;;;;;5072724;28;20428;-75
2023/10/10 03:15:33;;;;;;;7.43;4.07;;;;;;;;;;5072734;28;20424;-75
2023/10/10 03:21:06;;;;;;;6.53;2.70;;;;;;;;;;5076293;28;20956;-75
2023/10/10 03:23:41;;;;;;;19.70;4.57;;;;;;;;;;5076741;28;20442;-75
2023/10/10 03:26:18;;;;;;;14.23;3.97;;;;;;;;;;5076899;28;20526;-75
2023/10/10 03:28:47;;;;;;;13.63;4.40;;;;;;;;;;5076300;28;20448;-75
2023/10/10 03:31:24;;;;;;;9.30;3.03;;;;;;;;;;5076326;28;20515;-75
2023/10/10 03:34:10;;;;;;;14.47;4.33;;;;;;;;;;5076841;28;20432;-75
2023/10/10 03:36:44;;;;;;;13.33;4.10;;;;;;;;;;5076100;28;20463;-75
2023/10/10 03:39:25;;;;;;;9.20;4.00;;;;;;;;;;5076538;28;20817;-75
2023/10/10 05:24:08;;;;;;;9.53;4.67;;;;;;;;;;5068502;28;20416;-75
2023/10/10 05:26:46;;;;;;;13.50;4.73;;;;;;;;;;5072266;28;20437;-75
2023/10/10 05:29:14;;;;;;;14.27;5.70;;;;;;;;;;5072454;28;20468;-75
2023/10/10 05:31:44;;;;;;;14.20;6.10;;;;;;;;;;5072423;28;20923;-75
2023/10/10 05:34:14;;;;;;;19.93;6.20;;;;;;;;;;5070762;28;20447;-76
2023/10/10 05:36:44;;;;;;;15.40;4.60;;;;;;;;;;5069139;28;20534;-75
2023/10/10 05:39:17;;;;;;;15.97;4.90;;;;;;;;;;5071212;28;20437;-75
2023/10/10 05:41:47;;;;;;;11.30;4.53;;;;;;;;;;5070889;28;20754;-74
2023/10/10 05:44:16;;;;;;;16.70;5.37;;;;;;;;;;5071566;28;20460;-75
2023/10/10 05:46:44;;;;;;;12.07;4.17;;;;;;;;;;5071556;28;20432;-75
2023/10/10 05:49:11;;;;;;;15.73;4.63;;;;;;;;;;5068407;28;20476;-76
2023/10/10 05:51:40;;;;;;;14.93;5.10;;;;;;;;;;5067299;28;20440;-75
2023/10/10 05:54:10;;;;;;;12.67;4.50;;;;;;;;;;5071304;28;20444;-77
2023/10/10 05:56:38;;;;;;;15.40;5.20;;;;;;;;;;5071159;28;20435;-76
2023/10/10 05:59:08;;;;;;;12.90;4.63;;;;;;;;;;5067202;28;20437;-75
2023/10/10 06:01:36;;;;;;;12.50;5.83;;;;;;;;;;5070989;28;20448;-74
2023/10/10 06:04:03;;;;;;;19.20;4.57;;;;;;;;;;5071078;28;20448;-75
2023/10/10 06:06:32;;;;;;;14.20;5.43;;;;;;;;;;5069427;28;20437;-75
2023/10/10 06:09:01;;;;;;;11.50;5.20;;;;;;;;;;5070201;28;20526;-75
2023/10/10 06:11:34;;;;;;;22.57;6.70;;;;;;;;;;5072255;28;20433;-75
2023/10/10 06:14:01;;;;;;;14.80;4.83;;;;;;;;;;5072527;28;20440;-75
2023/10/10 06:16:28;;;;;;;14.20;5.63;;;;;;;;;;5070987;28;20443;-76
2023/10/10 06:18:55;;;;;;;20.40;6.10;;;;;;;;;;5072943;28;20432;-75
2023/10/10 06:21:23;;;;;;;18.30;5.80;;;;;;;;;;5061567;28;20442;-77
2023/10/10 06:23:51;;;;;;;10.13;4.70;;;;;;;;;;5067345;28;20493;-76
2023/10/10 06:26:21;;;;;;;17.60;4.93;;;;;;;;;;5072211;28;20449;-76
2023/10/10 06:28:53;;;;;;;9.67;6.97;;;;;;;;;;5072686;28;20463;-75
2023/10/10 06:31:20;;;;;;;13.77;5.13;;;;;;;;;;5072945;28;20835;-75
2023/10/10 06:33:50;;;;;;;13.30;4.80;;;;;;;;;;5071509;28;20432;-75
2023/10/10 06:36:33;;;;;;;12.90;4.50;;;;;;;;;;5070970;28;20533;-75
2023/10/10 06:41:50;;;;;;;18.03;5.13;;;;;;;;;;5071596;28;20894;-76
2023/10/10 06:44:31;;;;;;;15.50;5.57;;;;;;;;;;5072595;28;20479;-76
2023/10/10 06:47:00;;;;;;;9.57;4.03;;;;;;;;;;5072369;28;20918;-76
2023/10/10 06:49:43;;;;;;;9.83;4.40;;;;;;;;;;5072769;28;20504;-78
2023/10/10 06:52:14;;;;;;;14.83;4.67;;;;;;;;;;5076091;28;20511;-76
2023/10/10 06:54:44;;;;;;;12.80;4.23;;;;;;;;;;5076679;28;20530;-76
2023/10/10 06:57:17;;;;;;;14.87;4.20;;;;;;;;;;5076482;28;20428;-75
2023/10/10 06:59:46;;;;;;;14.63;5.67;;;;;;;;;;5076770;28;20545;-76
2023/10/10 07:02:21;;;;;;;14.57;5.47;;;;;;;;;;5061413;28;20428;-75
2023/10/10 07:04:52;;;;;;;13.97;4.60;;;;;;;;;;5075402;28;20446;-75
2023/10/10 07:07:20;;;;;;;12.93;4.07;;;;;;;;;;5076131;28;20531;-75
2023/10/10 07:09:47;;;;;;;15.10;4.20;;;;;;;;;;5075998;28;20484;-75
2023/10/10 07:12:16;;;;;;;10.77;4.10;;;;;;;;;;5075976;28;20448;-75
2023/10/10 07:14:45;;;;;;;9.13;3.83;;;;;;;;;;5076116;28;20472;-76
2023/10/10 07:17:14;;;;;;;9.63;4.03;;;;;;;;;;5075946;28;20922;-76
2023/10/10 07:21:04;;;;;;;13.50;4.40;;;;;;;;;;5075666;28;20444;-76
2023/10/10 07:22:44;;;;;;;26.43;5.83;;;;;;;;;;5071937;28;20459;-76
2023/10/10 07:25:25;;;;;;;31.27;5.03;;;;;;;;;;5071865;28;20818;-76
2023/10/10 07:27:52;;;;;;;11.57;4.57;;;;;;;;;;5073440;28;20444;-76
2023/10/10 07:30:25;;;;;;;20.00;5.10;;;;;;;;;;5074548;28;20480;-75
2023/10/10 07:32:53;;;;;;;10.00;4.00;;;;;;;;;;5075841;28;20431;-76
2023/10/10 07:35:25;;;;;;;10.97;3.70;;;;;;;;;;5075830;28;20490;-75
2023/10/10 07:37:57;;;;;;;13.50;4.30;;;;;;;;;;5075570;28;20523;-75
2023/10/10 07:40:30;;;;;;;20.13;6.23;;;;;;;;;;5075671;28;20498;-75
2023/10/10 07:42:59;;;;;;;18.57;4.60;;;;;;;;;;5075729;28;20440;-75
2023/10/10 07:45:29;;;;;;;13.93;4.17;;;;;;;;;;5075462;28;20502;-75
2023/10/10 07:50:49;;;;;;;19.93;5.23;;;;;;;;;;5074720;28;20606;-76
2023/10/10 07:53:17;;;;;;;15.60;4.43;;;;;;;;;;5071458;28;20549;-76
2023/10/10 07:56:00;;;;;;;13.80;4.07;;;;;;;;;;5075002;28;20447;-76
2023/10/10 07:58:42;;;;;;;15.30;4.20;;;;;;;;;;5072755;28;20531;-76
2023/10/10 08:01:10;;;;;;;12.47;4.70;;;;;;;;;;5075283;28;20787;-77
2023/10/10 08:03:43;;;;;;;14.10;4.20;;;;;;;;;;5074705;28;20451;-76
2023/10/10 08:06:11;;;;;;;12.20;4.20;;;;;;;;;;5075158;28;20437;-76
2023/10/10 08:08:40;;;;;;;18.33;5.00;;;;;;;;;;5074875;28;20502;-76
2023/10/10 08:11:12;;;;;;;14.13;5.37;;;;;;;;;;5074838;28;20479;-76
2023/10/10 08:13:41;;;;;;;12.80;4.00;;;;;;;;;;5074802;28;20527;-76
2023/10/10 08:16:09;;;;;;;13.50;4.30;;;;;;;;;;5074714;28;20519;-77
2023/10/10 08:18:52;;;;;;;19.13;4.50;;;;;;;;;;5074715;28;20490;-76
2023/10/10 08:21:24;;;;;;;9.47;4.00;;;;;;;;;;5074627;28;20556;-76
2023/10/10 08:23:56;;;;;;;10.43;4.50;;;;;;;;;;5075120;28;20428;-76
2023/10/10 08:26:29;;;;;;;11.50;4.80;;;;;;;;;;5073287;28;20432;-76
2023/10/10 08:28:57;;;;;;;12.77;4.07;;;;;;;;;;5071011;28;20523;-77
2023/10/10 08:31:24;;;;;;;16.73;4.27;;;;;;;;;;5074251;28;20497;-74
2023/10/10 08:33:51;;;;;;;12.77;4.80;;;;;;;;;;5074348;28;20440;-74
2023/10/10 08:36:25;;;;;;;16.30;4.50;;;;;;;;;;5074549;28;20467;-74
2023/10/10 08:38:54;;;;;;;21.80;7.37;;;;;;;;;;5074665;28;20829;-74
2023/10/10 08:41:23;;;;;;;24.33;13.23;;;;;;;;;;5074222;28;20483;-74
2023/10/10 08:43:57;;;;;;;15.20;6.13;;;;;;;;;;5074012;28;20498;-73
2023/10/10 08:46:26;;;;;;;13.00;4.90;;;;;;;;;;5074640;28;20472;-73
2023/10/10 08:48:54;;;;;;;13.80;5.20;;;;;;;;;;5074296;28;20467;-74
2023/10/10 08:51:21;;;;;;;12.60;6.17;;;;;;;;;;5074033;28;20435;-74
2023/10/10 08:53:50;;;;;;;12.43;4.10;;;;;;;;;;5074375;28;20509;-73
2023/10/10 08:56:20;;;;;;;11.43;3.93;;;;;;;;;;5073320;28;20432;-76
2023/10/10 08:58:48;;;;;;;9.73;4.20;;;;;;;;;;5073825;28;20467;-75
2023/10/10 09:01:15;;;;;;;11.30;4.20;;;;;;;;;;5073351;28;20566;-74
2023/10/10 09:03:45;;;;;;;12.83;5.00;;;;;;;;;;5074324;28;20452;-74
2023/10/10 09:06:16;;;;;;;14.47;4.77;;;;;;;;;;5074042;28;20467;-73
2023/10/10 09:08:44;;;;;;;12.60;4.53;;;;;;;;;;5073610;28;20813;-73
2023/10/10 09:11:12;;;;;;;13.03;5.10;;;;;;;;;;5073563;28;20471;-78
2023/10/10 09:13:52;;;;;;;10.90;4.70;;;;;;;;;;5072753;28;20451;-72
2023/10/10 09:16:21;;;;;;;11.07;4.27;;;;;;;;;;5073519;28;20431;-74
2023/10/10 09:19:08;;;;;;;13.20;4.63;;;;;;;;;;5073826;28;20436;-74
2023/10/10 09:21:46;;;;;;;14.93;4.13;;;;;;;;;;5073345;28;20463;-75
2023/10/10 09:24:27;;;;;;;13.30;4.30;;;;;;;;;;5070121;28;20439;-74
2023/10/10 09:26:56;;;;;;;13.60;3.90;;;;;;;;;;5073311;28;20440;-74
2023/10/10 09:29:42;;;;;;;15.03;4.10;;;;;;;;;;5073225;28;20448;-74
2023/10/10 09:32:13;;;;;;;13.70;4.73;;;;;;;;;;5069720;28;20470;-74
2023/10/10 09:34:41;;;;;;;14.80;4.40;;;;;;;;;;5069713;28;20509;-74
2023/10/10 09:37:13;;;;;;;20.60;4.67;;;;;;;;;;5073209;28;20517;-74
2023/10/10 09:39:42;;;;;;;13.50;3.97;;;;;;;;;;5073306;28;20505;-74
2023/10/10 09:42:44;;;;;;;17.13;4.50;;;;;;;;;;5073282;28;20436;-74
2023/10/10 09:45:27;;;;;;;10.10;4.30;;;;;;;;;;5072905;28;20926;-74
2023/10/10 09:47:56;;;;;;;9.30;4.00;;;;;;;;;;5070623;28;20450;-74
2023/10/10 09:50:37;;;;;;;10.17;4.50;;;;;;;;;;5073344;28;20845;-73
2023/10/10 09:53:19;;;;;;;15.70;4.77;;;;;;;;;;5073262;28;20501;-74
2023/10/10 09:55:46;;;;;;;13.83;3.70;;;;;;;;;;5069496;28;20778;-74
2023/10/10 09:58:24;;;;;;;8.73;3.80;;;;;;;;;;5072757;28;20444;-74
2023/10/10 10:00:53;;;;;;;11.03;4.33;;;;;;;;;;5069639;28;20474;-74
2023/10/10 10:06:34;;;;;;;15.50;4.63;;;;;;;;;;5031298;28;20432;-74
2023/10/10 10:09:16;;;;;;;11.03;4.40;;;;;;;;;;5073539;28;20523;-74
2023/10/10 10:11:51;;;;;;;8.43;4.47;;;;;;;;;;5073634;28;20435;-75
2023/10/10 10:14:23;;;;;;;13.57;4.33;;;;;;;;;;5073642;28;20438;-74
2023/10/10 10:16:58;;;;;;;13.77;3.70;;;;;;;;;;5073355;28;20411;-75
2023/10/10 10:19:28;;;;;;;12.63;4.33;;;;;;;;;;5073715;28;20419;-74
2023/10/10 10:22:08;;;;;;;12.50;4.57;;;;;;;;;;5073186;28;20466;-75
2023/10/10 10:24:54;;;;;;;12.20;4.20;;;;;;;;;;5073264;28;20420;-75
2023/10/10 10:27:27;;;;;;;12.90;4.40;;;;;;;;;;5073533;28;20430;-74
2023/10/10 10:30:08;;;;;;;7.43;3.90;;;;;;;;;;5073517;28;20473;-75
2023/10/10 10:32:38;;;;;;;11.10;4.27;;;;;;;;;;5073632;28;20502;-74
2023/10/10 10:35:12;;;;;;;9.60;4.03;;;;;;;;;;5073542;28;20522;-75
2023/10/10 10:37:43;;;;;;;12.17;4.33;;;;;;;;;;5073440;28;20423;-75
2023/10/10 10:40:23;;;;;;;9.90;4.40;;;;;;;;;;5073422;28;20439;-75
2023/10/10 10:42:53;;;;;;;10.93;4.27;;;;;;;;;;5073520;28;20524;-74
2023/10/10 10:45:35;;;;;;;10.30;4.17;;;;;;;;;;5073440;28;20463;-74
2023/10/10 10:48:07;;;;;;;14.30;4.43;;;;;;;;;;5073526;28;20777;-74
2023/10/10 10:50:42;;;;;;;11.47;4.23;;;;;;;;;;5072906;28;20448;-75
2023/10/10 10:53:20;;;;;;;9.00;4.67;;;;;;;;;;5073037;28;20473;-74
2023/10/10 10:56:06;;;;;;;16.20;4.43;;;;;;;;;;5073368;28;20423;-74
2023/10/10 10:58:32;;;;;;;12.50;5.00;;;;;;;;;;5073255;28;20473;-74
2023/10/10 11:01:07;;;;;;;12.07;4.10;;;;;;;;;;5072814;28;20929;-74
2023/10/10 11:03:37;;;;;;;9.63;4.30;;;;;;;;;;5073228;28;20423;-74
2023/10/10 11:06:06;;;;;;;13.60;4.60;;;;;;;;;;5071767;28;20416;-75
2023/10/10 11:11:27;;;;;;;15.43;4.87;;;;;;;;;;5072578;28;20458;-75
2023/10/10 11:14:00;;;;;;;13.73;4.80;;;;;;;;;;5070055;28;20894;-75
2023/10/10 11:16:37;;;;;;;10.43;4.10;;;;;;;;;;5068415;28;20535;-75
2023/10/10 11:28:46;;;;;;;11.20;4.23;;;;;;;;;;5068295;28;20419;-74
2023/10/10 11:31:14;;;;;;;17.00;4.23;;;;;;;;;;5072675;28;20463;-74
2023/10/10 11:33:49;;;;;;;13.33;4.60;;;;;;;;;;5072332;28;20424;-74
2023/10/10 11:36:22;;;;;;;14.17;4.53;;;;;;;;;;5071219;28;20471;-76
2023/10/10 11:38:55;;;;;;;14.27;5.07;;;;;;;;;;5073884;28;20420;-74
2023/10/10 11:41:29;;;;;;;15.30;5.20;;;;;;;;;;5075482;28;20456;-75
2023/10/10 11:44:04;;;;;;;8.00;4.17;;;;;;;;;;5075528;28;20416;-74
2023/10/10 11:46:34;;;;;;;9.00;4.30;;;;;;;;;;5074608;28;20427;-74
2023/10/10 11:49:01;;;;;;;7.90;4.37;;;;;;;;;;5074187;28;20755;-74
2023/10/10 11:51:35;;;;;;;16.87;5.10;;;;;;;;;;5072616;28;20544;-74
2023/10/10 11:54:02;;;;;;;17.50;4.60;;;;;;;;;;5053685;28;20519;-74
2023/10/10 11:56:34;;;;;;;16.20;5.40;;;;;;;;;;5053462;28;20469;-74
2023/10/10 16:09:52;;;;;;;20.57;4.23;;;;;;;;;;5026348;28;20503;-77
2023/10/10 16:12:21;;;;;;;12.90;3.47;;;;;;;;;;5052858;28;20529;-77
2023/10/10 17:26:11;;;;;;;17.23;6.20;;;;;;;;;;5047255;28;20495;-75
2023/10/10 17:28:39;;;;;;;11.70;6.67;;;;;;;;;;5054641;28;20484;-76
2023/10/10 17:31:08;;;;;;;14.27;6.93;;;;;;;;;;5054607;28;20449;-76
2023/10/10 17:33:39;;;;;;;20.97;8.50;;;;;;;;;;5054547;28;20479;-76
2023/10/10 17:36:07;;;;;;;18.83;6.93;;;;;;;;;;5053714;28;20480;-75
2023/10/10 17:38:34;;;;;;;17.37;7.90;;;;;;;;;;5054577;28;20491;-76
2023/10/10 17:41:02;;;;;;;17.43;8.07;;;;;;;;;;5054222;28;20469;-76
2023/10/10 17:43:30;;;;;;;14.83;6.67;;;;;;;;;;5054253;28;20441;-75
2023/10/10 17:45:58;;;;;;;19.23;7.17;;;;;;;;;;5054374;28;20460;-76
2023/10/10 17:48:29;;;;;;;13.70;6.10;;;;;;;;;;5054396;28;20515;-76
2023/10/10 17:50:57;;;;;;;15.50;6.13;;;;;;;;;;5054321;28;20795;-75
2023/10/10 17:53:24;;;;;;;15.73;6.00;;;;;;;;;;5054303;28;20455;-75
2023/10/10 17:55:51;;;;;;;15.97;6.53;;;;;;;;;;5053780;28;20437;-75
2023/10/10 17:58:19;;;;;;;17.87;5.50;;;;;;;;;;5052426;28;20429;-76
2023/10/10 18:00:52;;;;;;;19.67;8.10;;;;;;;;;;5052424;28;20441;-75
2023/10/10 18:03:19;;;;;;;16.20;8.47;;;;;;;;;;5051785;28;20425;-76
2023/10/10 18:05:46;;;;;;;19.13;5.57;;;;;;;;;;5053032;28;20437;-76
2023/10/10 18:08:15;;;;;;;17.60;7.27;;;;;;;;;;5050458;28;20441;-81
2023/10/10 18:10:43;;;;;;;11.70;6.20;;;;;;;;;;5052781;28;20524;-75
2023/10/10 18:13:11;;;;;;;17.30;5.70;;;;;;;;;;5042700;28;20442;-76
2023/10/10 18:15:39;;;;;;;12.60;6.87;;;;;;;;;;5042859;28;20468;-76
2023/10/10 18:18:08;;;;;;;11.33;6.10;;;;;;;;;;5051682;28;20831;-76
2023/10/10 18:20:39;;;;;;;15.90;6.27;;;;;;;;;;5051701;28;20775;-76
2023/10/10 18:23:08;;;;;;;20.17;6.20;;;;;;;;;;5051184;28;20979;-76
2023/10/10 18:25:38;;;;;;;15.47;7.83;;;;;;;;;;5053098;28;21000;-75
2023/10/10 18:28:06;;;;;;;13.20;6.40;;;;;;;;;;5051685;28;20781;-76
2023/10/10 18:30:36;;;;;;;16.80;7.43;;;;;;;;;;5050475;28;20444;-77
2023/10/10 18:33:07;;;;;;;19.73;7.20;;;;;;;;;;5047812;28;20467;-76
2023/10/10 18:35:36;;;;;;;22.03;6.97;;;;;;;;;;5033328;28;20426;-76
2023/10/10 18:38:07;;;;;;;13.73;6.50;;;;;;;;;;5033162;28;20925;-76
2023/10/10 18:40:35;;;;;;;16.87;7.03;;;;;;;;;;5033442;28;20453;-75
2023/10/10 18:43:06;;;;;;;15.80;6.57;;;;;;;;;;5033184;28;20565;-76
2023/10/10 18:45:34;;;;;;;23.63;6.80;;;;;;;;;;5034753;28;20773;-76
2023/10/10 18:48:01;;;;;;;23.63;6.03;;;;;;;;;;5052736;28;20452;-76
2023/10/10 18:50:29;;;;;;;15.60;6.10;;;;;;;;;;5053513;28;20495;-76
2023/10/10 18:52:58;;;;;;;25.87;6.40;;;;;;;;;;5053156;28;20449;-76
2023/10/10 18:55:25;;;;;;;16.23;6.43;;;;;;;;;;5043865;28;20529;-76
2023/10/10 18:57:56;;;;;;;16.20;6.60;;;;;;;;;;5044031;28;20457;-76
2023/10/10 19:00:26;;;;;;;15.90;6.17;;;;;;;;;;5048416;28;20483;-75
2023/10/10 19:02:53;;;;;;;13.30;6.60;;;;;;;;;;5050670;28;20441;-76
2023/10/10 19:05:26;;;;;;;17.97;8.10;;;;;;;;;;5051405;28;20464;-76
2023/10/10 19:07:54;;;;;;;16.20;8.10;;;;;;;;;;5051821;28;20442;-76
2023/10/10 19:10:25;;;;;;;19.57;7.33;;;;;;;;;;5051574;28;20503;-76
2023/10/10 19:12:53;;;;;;;14.73;6.50;;;;;;;;;;5049642;28;20488;-76
2023/10/10 19:15:24;;;;;;;18.60;6.50;;;;;;;;;;5050569;28;21034;-76
2023/10/10 19:17:52;;;;;;;17.33;6.33;;;;;;;;;;5050893;28;20436;-75
2023/10/10 19:20:21;;;;;;;21.40;6.80;;;;;;;;;;5047155;28;20441;-77
2023/10/10 19:22:49;;;;;;;20.57;6.30;;;;;;;;;;5048155;28;20444;-76
2023/10/10 19:25:16;;;;;;;13.10;5.80;;;;;;;;;;5051010;28;20488;-75
2023/10/10 19:27:48;;;;;;;18.67;5.93;;;;;;;;;;5050684;28;20495;-76
2023/10/10 19:30:17;;;;;;;20.13;7.77;;;;;;;;;;5051260;28;20480;-75
2023/10/10 19:32:46;;;;;;;11.37;6.77;;;;;;;;;;5051230;28;20567;-76
2023/10/10 19:35:13;;;;;;;14.20;8.30;;;;;;;;;;5050784;28;20437;-76
2023/10/10 19:37:43;;;;;;;20.87;10.53;;;;;;;;;;5051054;28;20433;-75
2023/10/10 19:40:13;;;;;;;13.10;6.67;;;;;;;;;;5051163;28;20827;-75
2023/10/10 19:42:40;;;;;;;13.60;6.90;;;;;;;;;;5051200;28;20842;-77
2023/10/10 19:45:13;;;;;;;13.27;6.00;;;;;;;;;;5050532;28;20429;-79
2023/10/10 19:47:41;;;;;;;13.90;5.90;;;;;;;;;;5049343;28;20451;-76
2023/10/10 19:50:08;;;;;;;10.43;7.00;;;;;;;;;;5050712;28;20845;-75
2023/10/10 19:52:37;;;;;;;12.57;6.77;;;;;;;;;;5047125;28;20842;-75
2023/10/10 19:55:06;;;;;;;17.13;6.17;;;;;;;;;;5051120;28;20837;-76
2023/10/10 19:57:36;;;;;;;14.33;5.47;;;;;;;;;;5050883;28;20449;-76
2023/10/10 20:00:06;;;;;;;20.53;5.60;;;;;;;;;;5049912;28;20798;-75
2023/10/10 20:02:35;;;;;;;16.73;5.80;;;;;;;;;;5054631;28;20441;-75
2023/10/10 20:05:02;;;;;;;12.17;4.90;;;;;;;;;;5054550;28;20540;-75
2023/10/10 20:07:30;;;;;;;21.70;5.90;;;;;;;;;;5054081;28;20468;-75
2023/10/10 20:09:57;;;;;;;15.80;5.97;;;;;;;;;;5054450;28;20433;-76
2023/10/10 20:12:25;;;;;;;10.33;5.60;;;;;;;;;;5054081;28;20663;-75
2023/10/10 20:14:52;;;;;;;13.50;6.17;;;;;;;;;;5054268;28;20433;-75
2023/10/10 20:17:19;;;;;;;15.93;5.20;;;;;;;;;;5050368;28;20791;-75
2023/10/10 20:19:50;;;;;;;11.03;6.70;;;;;;;;;;5054266;28;20526;-75
2023/10/10 20:22:19;;;;;;;11.80;5.33;;;;;;;;;;5053950;28;20438;-75
2023/10/10 20:24:47;;;;;;;11.30;5.10;;;;;;;;;;5053896;28;20465;-75
2023/10/10 20:27:16;;;;;;;20.70;7.87;;;;;;;;;;5053971;28;20491;-75
2023/10/10 20:29:44;;;;;;;11.37;6.23;;;;;;;;;;5053673;28;20935;-76
2023/10/10 20:32:11;;;;;;;12.80;6.13;;;;;;;;;;5053561;28;20559;-75
2023/10/10 20:34:40;;;;;;;15.33;7.80;;;;;;;;;;5053787;28;20491;-75
2023/10/10 20:37:10;;;;;;;17.07;7.07;;;;;;;;;;5054014;28;20528;-76
2023/10/10 20:39:41;;;;;;;10.43;6.00;;;;;;;;;;5053554;28;20461;-76
2023/10/10 20:42:09;;;;;;;15.10;6.60;;;;;;;;;;5053371;28;20430;-75
2023/10/10 20:44:36;;;;;;;16.43;6.33;;;;;;;;;;5052985;28;20468;-75
2023/10/10 20:47:04;;;;;;;12.40;5.70;;;;;;;;;;5052500;28;20488;-76
2023/10/10 20:49:31;;;;;;;21.60;5.87;;;;;;;;;;5048943;28;20988;-75
2023/10/10 20:51:58;;;;;;;9.03;5.50;;;;;;;;;;5053423;28;20572;-76
2023/10/10 20:54:27;;;;;;;12.27;5.40;;;;;;;;;;5053317;28;20511;-75
2023/10/10 20:56:54;;;;;;;16.03;6.30;;;;;;;;;;5052600;28;20768;-76
2023/10/10 20:59:22;;;;;;;13.63;5.30;;;;;;;;;;5052649;28;20438;-75
2023/10/10 21:01:49;;;;;;;13.80;5.90;;;;;;;;;;5052501;28;20967;-75
2023/10/10 21:04:16;;;;;;;13.83;5.90;;;;;;;;;;5052795;28;20441;-76
2023/10/10 21:06:43;;;;;;;12.97;5.67;;;;;;;;;;5052903;28;20437;-78
2023/10/10 21:09:11;;;;;;;14.30;5.30;;;;;;;;;;5052183;28;20460;-75
2023/10/10 21:11:39;;;;;;;9.63;5.10;;;;;;;;;;5052425;28;20434;-76
2023/10/10 21:14:10;;;;;;;13.47;5.77;;;;;;;;;;5052309;28;20437;-76
2023/10/10 21:16:37;;;;;;;8.83;4.90;;;;;;;;;;5053126;28;20422;-78
2023/10/10 21:19:04;;;;;;;9.47;4.97;;;;;;;;;;5052129;28;20987;-76
2023/10/10 21:21:32;;;;;;;11.13;5.27;;;;;;;;;;5052707;28;20526;-76
2023/10/10 21:23:59;;;;;;;8.47;4.90;;;;;;;;;;5051031;28;20440;-77
2023/10/10 21:26:29;;;;;;;15.33;5.53;;;;;;;;;;5052861;28;20566;-75
2023/10/10 21:28:58;;;;;;;10.83;5.10;;;;;;;;;;5052221;28;20524;-75
2023/10/10 21:31:25;;;;;;;13.37;4.70;;;;;;;;;;5052132;28;20830;-76
2023/10/10 21:33:52;;;;;;;11.00;5.10;;;;;;;;;;5052530;28;20873;-76
2023/10/10 21:36:19;;;;;;;12.93;5.47;;;;;;;;;;5051927;28;20434;-76
2023/10/10 21:38:47;;;;;;;16.07;6.00;;;;;;;;;;5052239;28;20491;-75
2023/10/10 21:41:15;;;;;;;17.37;4.97;;;;;;;;;;5052295;28;20441;-75
2023/10/10 21:43:42;;;;;;;15.00;5.20;;;;;;;;;;5052218;28;20528;-75
2023/10/10 21:46:10;;;;;;;9.70;4.50;;;;;;;;;;5051983;28;20496;-75
2023/10/10 21:48:39;;;;;;;9.70;3.87;;;;;;;;;;5051190;28;20491;-76
2023/10/10 21:51:06;;;;;;;8.03;5.10;;;;;;;;;;5052168;28;20912;-76
2023/10/10 21:53:33;;;;;;;11.70;4.73;;;;;;;;;;5051819;28;20489;-76
2023/10/10 21:56:01;;;;;;;14.70;5.73;;;;;;;;;;5051731;28;20483;-76
2023/10/10 21:58:28;;;;;;;16.70;5.53;;;;;;;;;;5049986;28;20434;-76
2023/10/10 22:00:58;;;;;;;10.00;5.20;;;;;;;;;;5050983;28;20931;-75
2023/10/10 22:03:27;;;;;;;11.97;5.37;;;;;;;;;;5049885;28;20473;-75
2023/10/10 22:05:54;;;;;;;11.30;4.60;;;;;;;;;;5050932;28;20437;-77
2023/10/10 22:08:25;;;;;;;8.07;5.30;;;;;;;;;;5051193;28;20437;-75
2023/10/10 22:10:54;;;;;;;10.70;4.30;;;;;;;;;;5049655;28;20724;-75
2023/10/10 22:13:22;;;;;;;16.77;5.13;;;;;;;;;;5050861;28;20829;-76
2023/10/10 22:15:49;;;;;;;11.30;4.27;;;;;;;;;;5051862;28;20433;-76
2023/10/10 22:18:17;;;;;;;10.40;3.90;;;;;;;;;;5050324;28;20442;-75
2023/10/10 22:20:46;;;;;;;8.10;3.50;;;;;;;;;;5050572;28;20473;-75
2023/10/10 22:23:15;;;;;;;12.03;4.43;;;;;;;;;;5050437;28;20476;-76